createdAt,value
2023-04-25T00:03:43.475Z,2.97
2023-04-25T00:13:36.992Z,3.58
2023-04-25T00:18:36.755Z,3.38
2023-04-25T00:23:39.890Z,3.35
2023-04-25T00:28:36.488Z,3.45
2023-04-25T00:33:35.714Z,3.20
2023-04-25T00:38:32.634Z,3.65
2023-04-25T00:43:29.221Z,3.40
2023-04-25T00:48:26.163Z,3.38
2023-04-25T00:53:23.267Z,2.85
2023-04-25T00:58:21.093Z,3.38
2023-04-25T01:03:18.813Z,3.58
2023-04-25T01:08:18.341Z,3.33
2023-04-25T01:13:14.800Z,3.30
2023-04-25T01:18:11.627Z,3.47
2023-04-25T01:28:04.545Z,3.53
2023-04-25T01:33:01.450Z,3.67
2023-04-25T01:38:00.190Z,4.07
2023-04-25T01:42:56.695Z,3.53
2023-04-25T01:47:53.453Z,4.72
2023-04-25T01:52:50.232Z,3.22
2023-04-25T01:57:46.859Z,4.15
2023-04-25T02:02:43.643Z,3.35
2023-04-25T02:12:37.011Z,4.07
2023-04-25T02:22:31.392Z,3.10
2023-04-25T02:27:27.928Z,4.47
2023-04-25T02:32:26.789Z,5.03
2023-04-25T02:37:24.219Z,3.75
2023-04-25T02:42:20.707Z,3.78
2023-04-25T02:47:17.291Z,3.83
2023-04-25T02:52:13.934Z,4.30
2023-04-25T02:57:10.509Z,4.32
2023-04-25T03:02:07.161Z,4.57
2023-04-25T03:07:03.628Z,3.45
2023-04-25T03:12:00.148Z,3.20
2023-04-25T03:16:56.786Z,3.08
2023-04-25T03:21:56.790Z,3.22
2023-04-25T03:26:53.383Z,3.53
2023-04-25T03:31:50.034Z,3.53
2023-04-25T03:44:10.418Z,3.88
2023-04-25T03:49:07.074Z,3.95
2023-04-25T03:54:03.579Z,2.85
2023-04-25T03:59:00.193Z,2.80
2023-04-25T04:03:57.149Z,3.30
2023-04-25T04:08:57.395Z,4.35
2023-04-25T04:14:07.667Z,2.97
2023-04-25T04:19:13.425Z,3.67
2023-04-25T04:24:17.414Z,3.05
2023-04-25T04:29:57.668Z,3.13
2023-04-25T04:34:58.078Z,3.28
2023-04-25T04:39:54.632Z,3.95
2023-04-25T06:14:29.569Z,2.50
2023-04-25T08:29:22.317Z,1.73
2023-04-25T14:44:04.892Z,1.55
2023-04-25T14:49:01.901Z,1.15
2023-04-25T14:53:59.035Z,1.48
2023-04-25T15:11:48.915Z,2.30
2023-04-25T15:16:45.610Z,2.15
2023-04-25T16:04:28.451Z,2.03
2023-04-25T18:05:24.387Z,5.15
2023-04-25T18:10:21.183Z,2.72
2023-04-25T18:15:18.218Z,1.75
2023-04-25T18:20:15.769Z,2.10
2023-04-25T18:25:13.776Z,1.63
2023-04-25T18:30:11.393Z,2.15
2023-04-25T18:35:11.308Z,2.05
2023-04-25T19:50:54.951Z,1.80
2023-04-25T19:55:56.805Z,2.10
2023-04-25T20:00:55.924Z,1.65
2023-04-25T20:05:58.266Z,1.60
2023-04-25T20:10:57.686Z,1.90
2023-04-25T20:15:54.231Z,1.95
2023-04-25T20:20:51.713Z,1.60
2023-04-25T20:25:48.495Z,1.67
2023-04-25T20:30:46.241Z,1.73
2023-04-25T20:35:42.756Z,1.73
2023-04-25T20:40:39.214Z,1.67
2023-04-25T20:45:37.455Z,1.85
2023-04-25T20:50:34.200Z,1.60
2023-04-25T20:55:30.857Z,1.80
2023-04-25T21:00:29.118Z,1.58
2023-04-25T21:05:25.670Z,1.38
2023-04-25T21:10:22.219Z,1.95
2023-04-25T21:15:21.167Z,2.10
2023-04-25T21:20:21.719Z,1.83
2023-04-25T21:25:20.574Z,1.85
2023-04-25T21:30:23.379Z,1.77
2023-04-25T21:35:21.774Z,1.48
2023-04-25T21:40:18.288Z,1.70
2023-04-25T21:45:14.771Z,1.48
2023-04-25T21:50:11.342Z,1.45
2023-04-25T21:55:09.474Z,1.58
2023-04-25T22:00:19.987Z,1.15
2023-04-25T22:05:23.200Z,1.40
2023-04-25T22:10:21.426Z,1.90
2023-04-25T22:15:19.402Z,0.90
2023-04-25T22:20:16.036Z,1.15
2023-04-25T22:25:12.582Z,0.82
2023-04-25T22:30:10.929Z,1.95
2023-04-25T22:35:07.979Z,1.00
2023-04-25T22:45:08.195Z,1.23
2023-04-25T22:50:07.740Z,1.20
2023-04-25T22:55:04.707Z,1.20
2023-04-25T23:05:00.022Z,1.20
2023-04-25T23:09:56.722Z,1.15
2023-04-25T23:14:53.615Z,1.20
2023-04-25T23:19:50.313Z,1.17
2023-04-25T23:24:49.206Z,2.15
2023-04-25T23:29:54.471Z,1.10
2023-04-25T23:34:51.123Z,1.40
2023-04-25T23:39:50.459Z,1.77
2023-04-25T23:44:47.004Z,2.85
2023-04-25T23:49:43.868Z,1.45
2023-04-25T23:54:40.427Z,1.40
2023-04-25T23:59:36.912Z,1.45
